Aviation Digital Data Service (ADDS)

Output produced by METARs form (0912 UTC 29 March 2017)
found at http://aviationweather.gov/adds/metars/
 
KLEB 290847Z 2909/3006 VRB03KT P6SM BKN030 
     FM291400 34007KT P6SM BKN025 
     FM291600 34010G18KT P6SM BKN025 
     FM292300 33004KT P6SM SCT025